createdAt,value
2019-04-29T00:00:48.063Z,101764.55
2019-04-29T00:03:19.404Z,101763.82
2019-04-29T00:05:50.832Z,101768.12
2019-04-29T00:08:22.200Z,101769.73
2019-04-29T00:10:53.806Z,101772.41
2019-04-29T00:13:25.089Z,101767.45
2019-04-29T00:16:12.649Z,101779.73
2019-04-29T00:18:56.562Z,101782.28
2019-04-29T00:21:27.920Z,101782.50
2019-04-29T00:24:04.160Z,101778.15
2019-04-29T00:26:32.162Z,101781.19
2019-04-29T00:29:03.492Z,101786.65
2019-04-29T00:31:34.745Z,101783.97
2019-04-29T00:34:06.001Z,101790.11
2019-04-29T00:36:44.042Z,101788.89
2019-04-29T00:39:42.926Z,101787.66
2019-04-29T00:42:27.835Z,101789.11
2019-04-29T00:44:59.219Z,101788.34
2019-04-29T00:47:30.729Z,101785.97
2019-04-29T00:50:01.942Z,101797.98
2019-04-29T00:52:33.252Z,101792.29
2019-04-29T00:55:09.836Z,101790.23
2019-04-29T00:57:41.012Z,101793.98
2019-04-29T01:00:17.548Z,101792.97
2019-04-29T01:02:48.721Z,101794.70
2019-04-29T01:05:19.933Z,101793.02
2019-04-29T01:07:51.305Z,101793.25
2019-04-29T01:10:22.533Z,101793.34
2019-04-29T01:12:53.807Z,101792.15
2019-04-29T01:15:25.155Z,101789.73
2019-04-29T01:17:56.396Z,101795.67
2019-04-29T01:20:27.621Z,101782.86
2019-04-29T01:23:01.149Z,101785.41
2019-04-29T01:25:32.264Z,101799.23
2019-04-29T01:28:13.849Z,101791.05
2019-04-29T01:31:17.862Z,101791.97
2019-04-29T01:33:50.715Z,101794.88
2019-04-29T01:36:40.656Z,101794.05
2019-04-29T01:39:14.447Z,101792.18
2019-04-29T01:41:51.723Z,101797.27
2019-04-29T01:44:23.279Z,101794.56
2019-04-29T01:46:54.583Z,101794.01
2019-04-29T01:49:25.839Z,101801.64
2019-04-29T01:51:57.044Z,101802.95
2019-04-29T01:54:28.223Z,101800.78
2019-04-29T01:56:59.497Z,101805.12
2019-04-29T01:59:30.769Z,101806.34
2019-04-29T02:02:02.005Z,101809.55
2019-04-29T02:04:33.158Z,101803.34
2019-04-29T02:07:04.561Z,101805.11
2019-04-29T02:09:57.317Z,101800.61
2019-04-29T02:12:28.564Z,101799.86
2019-04-29T02:14:59.836Z,101806.98
2019-04-29T02:17:31.067Z,101809.27
2019-04-29T02:20:02.217Z,101811.52
2019-04-29T02:22:50.494Z,101810.30
2019-04-29T02:25:27.418Z,101811.16
2019-04-29T02:27:58.602Z,101820.55
2019-04-29T02:30:52.417Z,101812.19
2019-04-29T02:33:23.532Z,101816.52
2019-04-29T02:35:54.861Z,101820.83
2019-04-29T02:38:36.035Z,101820.36
2019-04-29T02:41:29.091Z,101827.52
2019-04-29T02:44:01.907Z,101829.85
2019-04-29T02:46:33.251Z,101824.79
2019-04-29T02:49:04.638Z,101822.04
2019-04-29T02:51:52.060Z,101823.92
2019-04-29T02:54:24.540Z,101819.71
2019-04-29T02:57:10.482Z,101823.19
2019-04-29T02:59:46.053Z,101813.98
2019-04-29T03:02:34.289Z,101814.83
2019-04-29T03:05:15.356Z,101818.29
2019-04-29T03:07:46.552Z,101818.77
2019-04-29T03:10:20.173Z,101819.05
2019-04-29T03:12:51.515Z,101813.70
2019-04-29T03:15:32.798Z,101810.29
2019-04-29T03:18:04.609Z,101821.29
2019-04-29T03:20:45.137Z,101816.52
2019-04-29T03:23:18.460Z,101821.48
2019-04-29T03:25:49.677Z,101818.20
2019-04-29T03:28:20.936Z,101822.89
2019-04-29T03:30:52.133Z,101818.66
2019-04-29T03:33:23.308Z,101817.06
2019-04-29T03:35:54.543Z,101829.00
2019-04-29T03:38:25.817Z,101824.30
2019-04-29T03:40:57.018Z,101832.22
2019-04-29T03:43:28.296Z,101831.82
2019-04-29T03:45:59.518Z,101829.30
2019-04-29T03:48:30.796Z,101832.30
2019-04-29T03:51:02.097Z,101834.95
2019-04-29T03:53:33.361Z,101838.33
2019-04-29T03:56:04.722Z,101830.06
2019-04-29T03:58:35.913Z,101837.38
2019-04-29T04:01:15.167Z,101837.67
2019-04-29T04:03:54.089Z,101833.72
2019-04-29T04:06:40.070Z,101841.05
2019-04-29T04:09:15.190Z,101840.39
2019-04-29T04:11:46.464Z,101852.72
2019-04-29T04:14:17.700Z,101843.97
2019-04-29T04:17:06.731Z,101846.31
2019-04-29T04:19:38.073Z,101850.01
2019-04-29T04:22:09.440Z,101846.23
2019-04-29T04:24:40.637Z,101846.98
2019-04-29T04:27:11.851Z,101844.75
2019-04-29T04:29:43.034Z,101847.84
2019-04-29T04:32:14.284Z,101844.92
2019-04-29T04:34:45.533Z,101846.15
2019-04-29T04:37:16.833Z,101856.87
2019-04-29T04:39:48.145Z,101858.48
2019-04-29T04:42:19.271Z,101859.67
2019-04-29T04:44:50.597Z,101867.98
2019-04-29T04:47:22.230Z,101864.96
2019-04-29T04:49:54.080Z,101863.44
2019-04-29T04:52:25.220Z,101873.15
2019-04-29T04:54:56.401Z,101868.53
2019-04-29T04:57:27.666Z,101875.11
2019-04-29T04:59:58.955Z,101877.36
2019-04-29T05:02:30.190Z,101880.19
2019-04-29T05:05:01.433Z,101874.26
2019-04-29T05:07:32.656Z,101878.56
2019-04-29T05:10:04.133Z,101880.89
2019-04-29T05:12:38.467Z,101885.95
2019-04-29T05:15:09.825Z,101872.59
2019-04-29T05:17:41.044Z,101876.14
2019-04-29T05:20:13.416Z,101876.91
2019-04-29T05:22:59.725Z,101875.09
2019-04-29T05:25:33.233Z,101880.43
2019-04-29T05:28:05.614Z,101882.20
2019-04-29T05:30:36.852Z,101879.92
2019-04-29T05:33:08.091Z,101886.97
2019-04-29T05:36:10.486Z,101877.51
2019-04-29T05:38:54.401Z,101880.64
2019-04-29T05:41:30.112Z,101885.92
2019-04-29T05:44:07.155Z,101891.84
2019-04-29T05:46:57.146Z,101893.64
2019-04-29T05:49:37.518Z,101905.15
2019-04-29T05:52:15.834Z,101907.66
2019-04-29T05:54:46.920Z,101902.69
2019-04-29T05:57:20.462Z,101906.54
2019-04-29T05:59:51.108Z,101904.99
2019-04-29T06:02:24.071Z,101911.16
2019-04-29T06:04:55.205Z,101913.66
2019-04-29T06:07:26.958Z,101922.52
2019-04-29T06:09:58.406Z,101923.62
2019-04-29T06:12:29.700Z,101927.89
2019-04-29T06:15:01.014Z,101931.56
2019-04-29T06:17:32.390Z,101927.17
2019-04-29T06:20:03.715Z,101927.39
2019-04-29T06:22:37.899Z,101927.63
2019-04-29T06:25:08.171Z,101931.63
2019-04-29T06:27:39.464Z,101938.00
2019-04-29T06:30:10.918Z,101938.28
2019-04-29T06:32:42.215Z,101935.94
2019-04-29T06:35:15.316Z,101931.59
2019-04-29T06:37:46.643Z,101941.36
2019-04-29T06:40:18.235Z,101942.06
2019-04-29T06:42:53.000Z,101936.94
2019-04-29T06:45:22.316Z,101937.88
2019-04-29T06:47:53.833Z,101937.23
2019-04-29T06:50:25.610Z,101941.06
2019-04-29T06:52:56.942Z,101941.06
2019-04-29T06:55:28.236Z,101941.61
2019-04-29T06:57:59.698Z,101938.59
2019-04-29T07:00:30.948Z,101942.42
2019-04-29T07:03:02.097Z,101949.75
2019-04-29T07:05:33.392Z,101943.47
2019-04-29T07:08:04.574Z,101944.63
2019-04-29T07:10:35.881Z,101935.00
2019-04-29T07:13:07.346Z,101937.14
2019-04-29T07:15:38.625Z,101935.12
2019-04-29T07:18:09.773Z,101931.25
2019-04-29T07:20:41.052Z,101931.15
2019-04-29T07:23:12.284Z,101940.63
2019-04-29T07:25:43.537Z,101944.84
2019-04-29T07:28:18.376Z,101939.97
2019-04-29T07:31:00.965Z,101945.86
2019-04-29T07:33:22.776Z,101946.09
2019-04-29T07:35:53.493Z,101946.28
2019-04-29T07:38:24.746Z,101953.64
2019-04-29T07:40:55.967Z,101955.87
2019-04-29T07:43:28.419Z,101953.38
2019-04-29T07:46:08.706Z,101956.72
2019-04-29T07:48:42.062Z,101956.05
2019-04-29T07:51:12.840Z,101956.23
2019-04-29T07:53:45.632Z,101961.61
2019-04-29T07:56:16.984Z,101955.64
2019-04-29T07:58:48.628Z,101961.28
2019-04-29T08:01:24.599Z,101957.00
2019-04-29T08:03:53.092Z,101956.34
2019-04-29T08:06:24.664Z,101957.37
2019-04-29T08:09:02.731Z,101959.22
2019-04-29T08:11:29.059Z,101964.70
2019-04-29T08:14:05.356Z,101959.23
2019-04-29T08:16:36.570Z,101964.97
2019-04-29T08:19:07.749Z,101960.62
2019-04-29T08:21:39.020Z,101954.69
2019-04-29T08:24:11.570Z,101956.17
2019-04-29T08:26:47.320Z,101953.70
2019-04-29T08:29:16.170Z,101948.52
2019-04-29T08:31:47.472Z,101949.83
2019-04-29T08:34:22.968Z,101953.86
2019-04-29T08:36:51.567Z,101955.00
2019-04-29T08:39:25.162Z,101950.80
2019-04-29T08:41:58.808Z,101949.23
2019-04-29T08:44:54.744Z,101946.52
2019-04-29T08:47:31.464Z,101956.70
2019-04-29T08:50:00.398Z,101951.30
2019-04-29T08:52:31.649Z,101942.63
2019-04-29T08:55:03.975Z,101941.38
2019-04-29T08:57:36.495Z,101947.88
2019-04-29T09:00:11.602Z,101947.21
2019-04-29T09:02:47.447Z,101946.77
2019-04-29T09:05:16.010Z,101941.25
2019-04-29T09:07:47.182Z,101951.27
2019-04-29T09:10:19.167Z,101946.08
2019-04-29T09:12:50.403Z,101939.69
2019-04-29T09:15:21.735Z,101946.91
2019-04-29T09:17:52.937Z,101945.55
2019-04-29T09:20:24.335Z,101944.47
2019-04-29T09:23:00.155Z,101940.48
2019-04-29T09:25:39.357Z,101935.20
2019-04-29T09:28:17.659Z,101933.86
2019-04-29T09:30:45.779Z,101929.14
2019-04-29T09:33:17.112Z,101928.63
2019-04-29T09:35:48.316Z,101924.78
2019-04-29T09:38:19.604Z,101930.05
2019-04-29T09:40:59.618Z,101928.64
2019-04-29T09:43:50.680Z,101926.96
2019-04-29T09:46:34.503Z,101920.84
2019-04-29T09:49:04.143Z,101927.14
2019-04-29T09:51:35.541Z,101918.67
2019-04-29T09:54:09.602Z,101926.39
2019-04-29T09:56:39.993Z,101916.95
2019-04-29T09:59:31.613Z,101921.16
2019-04-29T10:02:12.679Z,101918.94
2019-04-29T10:05:17.699Z,101925.88
2019-04-29T10:07:48.982Z,101918.34
2019-04-29T10:10:20.435Z,101910.71
2019-04-29T10:12:53.916Z,101909.03
2019-04-29T10:15:34.373Z,101910.77
2019-04-29T10:21:00.247Z,101909.36
2019-04-29T10:23:31.461Z,101900.39
2019-04-29T10:26:02.736Z,101905.32
2019-04-29T10:28:35.673Z,101891.59
2019-04-29T10:31:21.535Z,101906.20
2019-04-29T10:34:00.522Z,101899.95
2019-04-29T10:36:47.486Z,101897.19
2019-04-29T10:39:50.257Z,101884.77
2019-04-29T10:42:48.199Z,101885.19
2019-04-29T10:45:40.574Z,101889.92
2019-04-29T10:48:23.123Z,101889.55
2019-04-29T10:50:56.401Z,101886.05
2019-04-29T10:53:28.943Z,101885.34
2019-04-29T10:56:05.557Z,101878.92
2019-04-29T10:58:35.588Z,101874.56
2019-04-29T11:02:37.662Z,101877.48
2019-04-29T11:05:29.720Z,101878.02
2019-04-29T11:08:26.559Z,101877.33
2019-04-29T11:11:02.335Z,101877.52
2019-04-29T11:13:31.519Z,101877.44
2019-04-29T11:16:02.794Z,101870.95
2019-04-29T11:18:34.201Z,101870.55
2019-04-29T11:21:08.679Z,101868.27
2019-04-29T11:24:00.096Z,101875.84
2019-04-29T11:26:50.167Z,101881.59
2019-04-29T11:29:22.071Z,101865.83
2019-04-29T11:31:56.110Z,101863.31
2019-04-29T11:34:43.888Z,101864.22
2019-04-29T11:37:17.765Z,101860.87
2019-04-29T11:39:51.615Z,101855.11
2019-04-29T11:42:26.019Z,101853.91
2019-04-29T11:45:02.161Z,101855.75
2019-04-29T11:47:31.052Z,101854.34
2019-04-29T11:50:15.399Z,101843.95
2019-04-29T11:52:46.674Z,101841.77
2019-04-29T11:55:20.185Z,101843.70
2019-04-29T11:57:56.593Z,101839.11
2019-04-29T12:00:53.147Z,101843.49
2019-04-29T12:03:28.015Z,101839.63
2019-04-29T12:06:02.450Z,101844.13
2019-04-29T12:08:33.974Z,101832.63
2019-04-29T12:11:07.384Z,101827.00
2019-04-29T12:14:06.795Z,101826.66
2019-04-29T12:16:55.793Z,101828.73
2019-04-29T12:19:30.177Z,101816.59
2019-04-29T12:22:04.891Z,101820.70
2019-04-29T12:24:35.485Z,101822.02
2019-04-29T12:27:07.208Z,101816.91
2019-04-29T12:29:38.731Z,101818.19
2019-04-29T12:32:27.612Z,101813.44
2019-04-29T12:35:16.737Z,101813.94
2019-04-29T12:38:05.859Z,101815.55
2019-04-29T12:41:20.842Z,101811.66
2019-04-29T12:43:59.808Z,101798.16
2019-04-29T12:46:55.705Z,101812.75
2019-04-29T12:49:30.016Z,101796.52
2019-04-29T12:52:01.238Z,101810.95
2019-04-29T12:54:32.607Z,101801.70
2019-04-29T12:57:03.956Z,101806.04
2019-04-29T12:59:37.209Z,101802.91
2019-04-29T13:02:26.374Z,101787.98
2019-04-29T13:05:09.602Z,101790.67
2019-04-29T13:08:01.113Z,101789.38
2019-04-29T13:10:46.671Z,101785.87
2019-04-29T13:13:20.151Z,101786.61
2019-04-29T13:16:20.110Z,101781.63
2019-04-29T13:19:12.278Z,101770.14
2019-04-29T13:21:41.957Z,101771.50
2019-04-29T13:24:23.146Z,101766.77
2019-04-29T13:26:46.222Z,101774.58
2019-04-29T13:29:26.835Z,101765.23
2019-04-29T13:31:50.427Z,101760.20
2019-04-29T13:34:32.955Z,101753.89
2019-04-29T13:37:07.357Z,101753.47
2019-04-29T13:39:39.761Z,101758.99
2019-04-29T13:42:09.146Z,101749.88
2019-04-29T13:44:46.067Z,101748.02
2019-04-29T13:47:40.321Z,101752.64
2019-04-29T13:50:38.690Z,101746.92
2019-04-29T13:52:59.182Z,101751.48
2019-04-29T13:55:47.750Z,101735.09
2019-04-29T13:58:06.081Z,101735.01
2019-04-29T14:01:02.175Z,101743.81
2019-04-29T14:03:42.053Z,101738.79
2019-04-29T14:06:14.430Z,101741.34
2019-04-29T14:08:44.067Z,101738.27
2019-04-29T14:11:15.492Z,101733.61
2019-04-29T14:13:48.499Z,101731.59
2019-04-29T14:16:19.671Z,101732.11
2019-04-29T14:18:51.021Z,101738.77
2019-04-29T14:21:25.717Z,101728.17
2019-04-29T14:23:55.226Z,101725.77
2019-04-29T14:26:29.385Z,101733.34
2019-04-29T14:28:59.410Z,101732.73
2019-04-29T14:31:30.811Z,101724.31
2019-04-29T14:34:26.570Z,101727.80
2019-04-29T14:37:18.311Z,101723.88
2019-04-29T14:39:37.258Z,101723.39
2019-04-29T14:42:14.845Z,101723.17
2019-04-29T14:44:53.566Z,101720.66
2019-04-29T14:47:41.120Z,101727.23
2019-04-29T14:50:15.740Z,101720.02
2019-04-29T14:52:49.382Z,101720.45
2019-04-29T14:55:20.052Z,101729.46
2019-04-29T14:57:51.787Z,101721.95
2019-04-29T15:00:36.594Z,101717.02
2019-04-29T15:03:07.905Z,101719.19
2019-04-29T15:05:39.185Z,101721.37
2019-04-29T15:08:10.470Z,101719.58
2019-04-29T15:10:42.673Z,101721.05
2019-04-29T15:13:21.320Z,101717.76
2019-04-29T15:16:04.739Z,101720.30
2019-04-29T15:18:50.322Z,101722.96
2019-04-29T15:21:45.718Z,101714.34
2019-04-29T15:24:17.708Z,101723.80
2019-04-29T15:26:49.046Z,101716.89
2019-04-29T15:29:20.333Z,101713.79
2019-04-29T15:31:51.439Z,101717.31
2019-04-29T15:34:22.723Z,101714.86
2019-04-29T15:36:53.876Z,101718.39
2019-04-29T15:39:26.044Z,101710.67
2019-04-29T15:41:57.610Z,101715.18
2019-04-29T15:44:28.981Z,101715.70
2019-04-29T15:47:00.340Z,101719.48
2019-04-29T15:49:35.002Z,101718.05
2019-04-29T15:52:06.231Z,101720.09
2019-04-29T15:54:39.533Z,101717.11
2019-04-29T15:57:15.467Z,101719.86
2019-04-29T15:59:48.871Z,101710.41
2019-04-29T16:02:16.671Z,101718.20
2019-04-29T16:04:54.491Z,101714.51
2019-04-29T16:07:46.725Z,101718.52
2019-04-29T16:10:51.801Z,101712.50
2019-04-29T16:13:27.651Z,101717.55
2019-04-29T16:15:56.767Z,101722.41
2019-04-29T16:18:28.085Z,101722.22
2019-04-29T16:20:59.352Z,101731.30
2019-04-29T16:23:32.890Z,101729.50
2019-04-29T16:26:03.582Z,101724.82
2019-04-29T16:28:39.954Z,101734.73
2019-04-29T16:31:12.049Z,101729.34
2019-04-29T16:33:47.291Z,101731.34
2019-04-29T16:36:15.951Z,101726.33
2019-04-29T16:38:51.247Z,101729.17
2019-04-29T16:41:50.984Z,101724.99
2019-04-29T16:44:34.670Z,101725.17
2019-04-29T16:46:53.949Z,101716.94
2019-04-29T16:49:25.297Z,101725.66
2019-04-29T16:51:56.557Z,101726.52
2019-04-29T16:54:28.607Z,101733.20
2019-04-29T16:57:00.002Z,101726.66
2019-04-29T16:59:31.430Z,101725.31
2019-04-29T17:02:02.915Z,101736.38
2019-04-29T17:04:34.140Z,101732.14
2019-04-29T17:07:13.999Z,101730.27
2019-04-29T17:10:15.608Z,101735.42
2019-04-29T17:12:50.822Z,101742.60
2019-04-29T17:15:25.545Z,101742.97
2019-04-29T17:17:54.952Z,101738.73
2019-04-29T17:20:26.389Z,101742.91
2019-04-29T17:22:58.898Z,101738.52
2019-04-29T17:25:30.065Z,101737.17
2019-04-29T17:31:14.614Z,101736.11
2019-04-29T17:34:29.512Z,101737.26
2019-04-29T17:35:19.072Z,101726.42
2019-04-29T17:36:50.794Z,101736.44
2019-04-29T17:39:22.409Z,101735.92
2019-04-29T17:41:53.914Z,101731.68
2019-04-29T17:44:55.341Z,101730.34
2019-04-29T17:47:49.161Z,101732.66
2019-04-29T17:50:30.695Z,101728.48
2019-04-29T17:53:02.195Z,101727.82
2019-04-29T17:55:42.103Z,101729.36
2019-04-29T17:58:22.772Z,101728.33
2019-04-29T18:01:15.847Z,101728.87
2019-04-29T18:04:16.840Z,101735.61
2019-04-29T18:06:49.575Z,101727.58
2019-04-29T18:09:37.550Z,101734.06
2019-04-29T18:12:18.970Z,101742.56
2019-04-29T18:14:50.501Z,101742.66
2019-04-29T18:17:31.264Z,101738.95
2019-04-29T18:20:24.897Z,101734.61
2019-04-29T18:23:19.214Z,101741.54
2019-04-29T18:26:17.015Z,101740.50
2019-04-29T18:28:52.273Z,101754.66
2019-04-29T18:31:26.530Z,101748.16
2019-04-29T18:33:59.346Z,101755.81
2019-04-29T18:36:30.994Z,101756.66
2019-04-29T18:39:07.034Z,101762.02
2019-04-29T18:41:39.630Z,101760.83
2019-04-29T18:44:18.961Z,101771.01
2019-04-29T18:46:53.167Z,101766.30
2019-04-29T18:49:23.505Z,101766.77
2019-04-29T18:51:57.907Z,101773.86
2019-04-29T18:54:35.786Z,101776.88
2019-04-29T18:57:07.398Z,101775.02
2019-04-29T18:59:38.589Z,101783.70
2019-04-29T19:02:09.849Z,101787.05
2019-04-29T19:04:58.739Z,101786.67
2019-04-29T19:07:31.830Z,101790.19
2019-04-29T19:10:03.138Z,101794.69
2019-04-29T19:12:36.456Z,101796.08
2019-04-29T19:15:11.406Z,101791.02
2019-04-29T19:17:41.062Z,101794.08
2019-04-29T19:20:18.361Z,101797.31
2019-04-29T19:22:47.398Z,101797.83
2019-04-29T19:25:18.715Z,101786.05
2019-04-29T19:27:49.931Z,101802.20
2019-04-29T19:30:26.486Z,101795.81
2019-04-29T19:33:00.406Z,101801.70
2019-04-29T19:35:29.502Z,101807.73
2019-04-29T19:38:00.193Z,101805.03
2019-04-29T19:40:40.513Z,101803.33
2019-04-29T19:43:10.226Z,101807.20
2019-04-29T19:45:39.445Z,101804.66
2019-04-29T19:48:10.658Z,101805.66
2019-04-29T19:50:41.974Z,101808.33
2019-04-29T19:53:14.816Z,101814.19
2019-04-29T19:55:46.313Z,101808.98
2019-04-29T19:58:28.521Z,101818.28
2019-04-29T20:00:53.727Z,101820.16
2019-04-29T20:03:36.013Z,101817.48
2019-04-29T20:06:08.904Z,101820.05
2019-04-29T20:08:52.579Z,101817.03
2019-04-29T20:11:14.122Z,101832.16
2019-04-29T20:13:52.041Z,101833.92
2019-04-29T20:16:57.549Z,101826.16
2019-04-29T20:19:31.148Z,101838.45
2019-04-29T20:22:07.461Z,101843.28
2019-04-29T20:24:36.397Z,101836.06
2019-04-29T20:27:07.958Z,101836.92
2019-04-29T20:29:39.435Z,101841.06
2019-04-29T20:32:10.947Z,101836.92
2019-04-29T20:34:42.389Z,101833.34
2019-04-29T20:37:16.150Z,101835.45
2019-04-29T20:39:46.566Z,101829.64
2019-04-29T20:42:17.943Z,101837.85
2019-04-29T20:44:49.566Z,101829.44
2019-04-29T20:47:23.529Z,101827.45
2019-04-29T20:49:53.872Z,101828.38
2019-04-29T20:52:36.202Z,101829.52
2019-04-29T20:55:10.214Z,101827.91
2019-04-29T20:57:41.687Z,101830.98
2019-04-29T21:00:14.327Z,101833.37
2019-04-29T21:02:48.527Z,101838.41
2019-04-29T21:05:23.298Z,101833.98
2019-04-29T21:08:02.637Z,101835.26
2019-04-29T21:10:26.108Z,101827.53
2019-04-29T21:13:31.253Z,101829.30
2019-04-29T21:16:22.812Z,101830.91
2019-04-29T21:18:57.090Z,101826.58
2019-04-29T21:21:28.346Z,101823.84
2019-04-29T21:23:59.629Z,101826.23
2019-04-29T21:26:30.922Z,101828.55
2019-04-29T21:29:02.218Z,101826.67
2019-04-29T21:31:35.422Z,101826.50
2019-04-29T21:34:06.414Z,101821.17
2019-04-29T21:37:01.695Z,101820.14
2019-04-29T21:39:41.206Z,101823.56
2019-04-29T21:42:22.585Z,101819.42
2019-04-29T21:44:53.857Z,101825.41
2019-04-29T21:47:28.147Z,101820.34
2019-04-29T21:49:58.019Z,101817.58
2019-04-29T21:52:29.526Z,101813.34
2019-04-29T21:55:00.780Z,101819.80
2019-04-29T21:57:32.044Z,101810.09
2019-04-29T22:00:03.277Z,101810.33
2019-04-29T22:02:35.816Z,101817.64
2019-04-29T22:05:09.712Z,101810.47
2019-04-29T22:07:45.905Z,101811.45
2019-04-29T22:10:15.441Z,101809.61
2019-04-29T22:12:50.884Z,101811.25
2019-04-29T22:15:29.893Z,101811.59
2019-04-29T22:17:56.427Z,101808.31
2019-04-29T22:20:25.845Z,101815.66
2019-04-29T22:22:57.423Z,101812.44
2019-04-29T22:25:28.903Z,101812.72
2019-04-29T22:28:00.166Z,101818.91
2019-04-29T22:30:31.618Z,101809.44
2019-04-29T22:33:02.791Z,101811.52
2019-04-29T22:35:39.445Z,101808.30
2019-04-29T22:38:12.677Z,101804.75
2019-04-29T22:40:45.196Z,101811.27
2019-04-29T22:43:44.599Z,101807.54
2019-04-29T22:46:17.665Z,101811.62
2019-04-29T22:48:49.051Z,101804.19
2019-04-29T22:51:20.285Z,101812.05
2019-04-29T22:53:51.465Z,101805.23
2019-04-29T22:56:22.754Z,101804.39
2019-04-29T22:58:55.868Z,101803.13
2019-04-29T23:01:26.915Z,101810.83
2019-04-29T23:03:58.153Z,101809.80
2019-04-29T23:06:29.353Z,101814.78
2019-04-29T23:09:00.683Z,101810.58
2019-04-29T23:11:34.780Z,101808.39
2019-04-29T23:14:08.556Z,101805.17
2019-04-29T23:16:37.945Z,101795.48
2019-04-29T23:19:13.625Z,101796.95
2019-04-29T23:22:07.479Z,101793.70
2019-04-29T23:24:55.868Z,101797.44
2019-04-29T23:27:27.231Z,101798.48
2019-04-29T23:29:58.493Z,101792.48
2019-04-29T23:32:29.766Z,101793.26
2019-04-29T23:35:01.669Z,101788.27
2019-04-29T23:37:35.784Z,101788.54
2019-04-29T23:40:08.556Z,101784.06
2019-04-29T23:42:43.644Z,101779.86
2019-04-29T23:45:16.314Z,101783.14
2019-04-29T23:47:49.274Z,101774.19
2019-04-29T23:50:20.206Z,101773.98
2019-04-29T23:52:52.033Z,101777.91
2019-04-29T23:55:25.601Z,101773.36
2019-04-29T23:58:14.122Z,101776.78
